Olney, TX (76374)

10:42 AM CDT on September 01, 2015 (GMT -0500)
olney | | Change Station
CLOSE
Current Station
Personal Weather Station
Location: Olney, TX
Elevation: 1220 ft
Nearby Weather Stations

Elev 1220 ft 33.37 °N, 98.76 °W | Updated 8 minutes ago

Clear
Clear
84.0 °F
Feels Like 88 °F
N
2.2
Wind Variable Wind from SSE

Today
High -- | Low -- °F
--% Chance of Precip.
Yesterday
High -- | Low -- °F
Precip. -- in
7:09 AM 8:00 PM
Waning Gibbous, 88% visible
Pressure 30.03 in
Visibility 10.0 miles
Clouds Clear
Heat Index 88 °F
Dew Point 69 °F
Humidity 61%
Rainfall 0.00 in
Snow Depth Not available.
UV 6 out of 12
Pollen 9.60 out of 12
Air Quality Not available.
Flu Activity Not available.
METAR KRPH 011535Z AUTO 17005KT 10SM CLR 29/20 A3003 RMK AO2 T02940201
Pressure 30.03 in
Visibility 10.0 miles
Clouds Clear
Heat Index 88 °F
Dew Point 69 °F
Humidity 61%
Rainfall 0.00 in
Snow Depth Not available.
UV 6 out of 12
Pollen 9.60 out of 12
Air Quality Not available.
Flu Activity Not available.
METAR KRPH 011535Z AUTO 17005KT 10SM CLR 29/20 A3003 RMK AO2 T02940201

10-Day Weather Forecast

×

Almanac

Astronomy

Sep. 01, 2015 Rise Set
Actual Time
Civil Twilight
Nautical Twilight
Astronomical Twilight
Moon
Length of Visible Light
Length of Day
Tomorrow will be .
, % of the Moon is Illuminated

Today's Extremes

State Highs State Lows

Community

WunderPhotos

Upload Photos

1,851,538 photos uploaded!

WunderBlogs® & News

Nearby

Air Quality

  Air Quality AQ Index Pollutant
Not available.

Snow Depth

Station Depth Elevation

Earthquake Activity

City Distance Mag. Time & Date
Minimum magnitude displayed is 2.5.

Coastal Water Temperatures

Place Temperature

Stations

Nearby Weather Stations

Station Location Temp. Windchill Dew Point Humidity Wind Precip. Elev Updated Type